Time;durP1;ratioP1;P1;durP2;ratioP2;P2;SDS_P1;SDS_P2;PMS_P1;PMS_P2;Temp;Humidity;BMP_temperature;BMP_pressure;BME280_temperature;BME280_humidity;BME280_pressure;Samples;Min_cycle;Max_cycle;Signal;HPM_P1;HPM_P2
2023/07/11 00:00:53;;;;;;;;;;;23.60;91.20;;;;;;5023272;28;20650;-84
2023/07/11 00:03:18;;;;;;;;;;;23.50;91.50;;;;;;5024439;28;19978;-83
2023/07/11 00:05:44;;;;;;;;;;;23.50;91.70;;;;;;5022734;28;19920;-83
2023/07/11 00:08:09;;;;;;;;;;;23.40;92.20;;;;;;5007213;28;19909;-83
2023/07/11 00:10:35;;;;;;;;;;;23.40;92.20;;;;;;5030115;28;19972;-84
2023/07/11 00:13:01;;;;;;;;;;;23.40;92.00;;;;;;5006642;28;19913;-83
2023/07/11 00:15:26;;;;;;;;;;;23.40;92.30;;;;;;5006095;28;19913;-84
2023/07/11 00:17:52;;;;;;;;;;;23.40;93.00;;;;;;5006591;28;19968;-86
2023/07/11 00:20:18;;;;;;;;;;;23.30;93.70;;;;;;5004900;28;19917;-87
2023/07/11 00:22:45;;;;;;;;;;;23.30;93.90;;;;;;5023038;28;19928;-87
2023/07/11 00:25:11;;;;;;;;;;;23.30;94.20;;;;;;5023553;28;19959;-86
2023/07/11 00:27:36;;;;;;;;;;;23.20;94.30;;;;;;5014405;28;19920;-84
2023/07/11 00:30:02;;;;;;;;;;;23.30;94.60;;;;;;5011102;28;19963;-85
2023/07/11 00:32:28;;;;;;;;;;;23.30;94.70;;;;;;5013392;28;19921;-85
2023/07/11 00:34:53;;;;;;;;;;;23.20;94.90;;;;;;5023524;28;19987;-84
2023/07/11 00:37:19;;;;;;;;;;;23.30;95.10;;;;;;5023640;28;19940;-86
2023/07/11 00:39:45;;;;;;;;;;;23.30;95.20;;;;;;5012079;28;19913;-85
2023/07/11 00:42:10;;;;;;;;;;;23.30;95.30;;;;;;5018067;28;20562;-85
2023/07/11 00:44:54;;;;;;;;;;;23.20;95.50;;;;;;5029344;28;19917;-86
2023/07/11 00:47:21;;;;;;;;;;;23.20;95.70;;;;;;5022350;28;19921;-86
2023/07/11 00:49:47;;;;;;;;;;;23.10;96.00;;;;;;5023174;28;19944;-85
2023/07/11 00:52:15;;;;;;;;;;;23.10;96.30;;;;;;5019414;28;19924;-84
2023/07/11 00:54:42;;;;;;;;;;;23.10;96.50;;;;;;5008513;28;19966;-88
2023/07/11 00:57:08;;;;;;;;;;;23.00;96.90;;;;;;5024181;28;19921;-87
2023/07/11 00:59:34;;;;;;;;;;;23.00;97.20;;;;;;5005080;28;20379;-85
2023/07/11 01:02:08;;;;;;;;;;;22.90;97.30;;;;;;5021788;28;19927;-86
2023/07/11 01:04:34;;;;;;;;;;;22.90;97.30;;;;;;5021504;28;19917;-86
2023/07/11 01:07:00;;;;;;;;;;;23.00;97.40;;;;;;5022353;28;19959;-84
2023/07/11 01:09:26;;;;;;;;;;;22.90;97.60;;;;;;5020907;28;19996;-84
2023/07/11 01:11:51;;;;;;;;;;;22.90;97.80;;;;;;5021733;28;19917;-84
2023/07/11 01:14:17;;;;;;;;;;;22.80;98.00;;;;;;5022514;28;19948;-84
2023/07/11 01:16:43;;;;;;;;;;;22.80;98.40;;;;;;5003850;28;19991;-84
2023/07/11 01:19:09;;;;;;;;;;;22.80;98.60;;;;;;5004135;28;19921;-85
2023/07/11 01:21:34;;;;;;;;;;;22.70;99.20;;;;;;5015434;28;20399;-84
2023/07/11 01:24:00;;;;;;;;;;;22.70;98.90;;;;;;5004119;28;21585;-85
2023/07/11 01:26:25;;;;;;;;;;;22.70;99.20;;;;;;5022400;28;19917;-84
2023/07/11 01:28:51;;;;;;;;;;;22.70;99.40;;;;;;5020836;28;19917;-84
2023/07/11 01:31:17;;;;;;;;;;;22.70;99.70;;;;;;5022132;28;20023;-84
2023/07/11 01:33:42;;;;;;;;;;;22.70;99.80;;;;;;5022035;28;20647;-83
2023/07/11 01:36:08;;;;;;;;;;;22.70;99.60;;;;;;5020901;28;20478;-84
2023/07/11 01:38:33;;;;;;;;;;;22.70;99.80;;;;;;5021803;28;20380;-84
2023/07/11 01:40:59;;;;;;;;;;;22.70;99.90;;;;;;5004003;28;19967;-84
2023/07/11 01:43:26;;;;;;;;;;;22.60;99.90;;;;;;5021573;28;19925;-84
2023/07/11 01:45:51;;;;;;;;;;;22.60;99.90;;;;;;5004006;28;19917;-83
2023/07/11 01:48:17;;;;;;;;;;;22.60;99.90;;;;;;5004833;28;19921;-83
2023/07/11 01:50:42;;;;;;;;;;;22.50;99.90;;;;;;5022016;28;19925;-83
2023/07/11 01:53:08;;;;;;;;;;;22.50;99.90;;;;;;5022126;28;20007;-84
2023/07/11 01:55:34;;;;;;;;;;;22.50;99.90;;;;;;5022210;28;19954;-85
2023/07/11 01:57:59;;;;;;;;;;;22.40;99.90;;;;;;5020989;28;19924;-84
2023/07/11 02:00:25;;;;;;;;;;;22.50;99.90;;;;;;5020451;28;19939;-84
2023/07/11 02:02:50;;;;;;;;;;;22.40;99.90;;;;;;5004050;28;20435;-84
2023/07/11 02:05:16;;;;;;;;;;;22.40;99.90;;;;;;5004560;28;20483;-83
2023/07/11 02:07:42;;;;;;;;;;;22.40;99.90;;;;;;5021624;28;19917;-84
2023/07/11 02:10:08;;;;;;;;;;;22.30;99.90;;;;;;5003911;28;19921;-85
2023/07/11 02:12:34;;;;;;;;;;;22.20;99.90;;;;;;5017568;28;20015;-84
2023/07/11 02:14:59;;;;;;;;;;;22.30;99.90;;;;;;5003206;28;20399;-84
2023/07/11 02:17:25;;;;;;;;;;;22.30;99.90;;;;;;5021256;28;19978;-85
2023/07/11 02:19:51;;;;;;;;;;;22.20;99.90;;;;;;5002967;28;19924;-84
2023/07/11 02:22:16;;;;;;;;;;;22.20;99.90;;;;;;5018726;28;19932;-85
2023/07/11 02:24:42;;;;;;;;;;;22.20;99.90;;;;;;5021854;28;20634;-83
2023/07/11 02:27:08;;;;;;;;;;;22.20;99.90;;;;;;5020704;28;20077;-84
2023/07/11 02:29:33;;;;;;;;;;;22.10;99.90;;;;;;5024790;28;20395;-84
2023/07/11 02:31:59;;;;;;;;;;;22.20;99.90;;;;;;5024856;28;19967;-84
2023/07/11 02:34:25;;;;;;;;;;;22.10;99.90;;;;;;5007713;28;20352;-84
2023/07/11 02:36:51;;;;;;;;;;;22.10;99.90;;;;;;5025719;28;19920;-84
2023/07/11 02:39:16;;;;;;;;;;;22.10;99.90;;;;;;5007892;28;20032;-83
2023/07/11 02:41:42;;;;;;;;;;;22.10;99.90;;;;;;5020190;28;20368;-83
2023/07/11 02:44:08;;;;;;;;;;;22.10;99.90;;;;;;5025299;28;19963;-84
2023/07/11 02:46:34;;;;;;;;;;;22.10;99.90;;;;;;5007185;28;19921;-82
2023/07/11 02:49:00;;;;;;;;;;;22.10;99.90;;;;;;5006874;28;19963;-84
2023/07/11 02:51:25;;;;;;;;;;;22.00;99.90;;;;;;5022367;28;19921;-84
2023/07/11 02:53:51;;;;;;;;;;;22.00;99.90;;;;;;5016240;28;20769;-84
2023/07/11 02:56:18;;;;;;;;;;;22.00;99.90;;;;;;5012871;28;20081;-84
2023/07/11 02:58:44;;;;;;;;;;;21.90;99.90;;;;;;5010292;28;19955;-85
2023/07/11 03:01:10;;;;;;;;;;;22.00;99.90;;;;;;5007589;28;20007;-84
2023/07/11 03:03:35;;;;;;;;;;;22.00;99.90;;;;;;5025107;28;20675;-83
2023/07/11 03:06:01;;;;;;;;;;;21.90;99.90;;;;;;5011663;28;19912;-84
2023/07/11 03:08:26;;;;;;;;;;;21.90;99.90;;;;;;5013539;28;19921;-83
2023/07/11 03:10:56;;;;;;;;;;;21.90;99.90;;;;;;5025656;28;20411;-84
2023/07/11 03:13:21;;;;;;;;;;;21.90;99.90;;;;;;5025199;28;19913;-83
2023/07/11 03:15:47;;;;;;;;;;;21.90;99.90;;;;;;5025563;28;19974;-84
2023/07/11 03:18:13;;;;;;;;;;;21.90;99.90;;;;;;5012686;28;19913;-84
2023/07/11 03:20:39;;;;;;;;;;;21.90;99.90;;;;;;5012442;28;19927;-84
2023/07/11 03:23:27;;;;;;;;;;;21.80;99.90;;;;;;5026333;28;20454;-85
2023/07/11 03:25:53;;;;;;;;;;;21.80;99.90;;;;;;5027871;28;19917;-84
2023/07/11 03:28:18;;;;;;;;;;;21.90;99.90;;;;;;5031676;28;20765;-84
2023/07/11 03:30:44;;;;;;;;;;;21.80;99.90;;;;;;5025296;28;19925;-85
2023/07/11 03:33:09;;;;;;;;;;;21.70;99.90;;;;;;5031225;28;19924;-83
2023/07/11 03:35:35;;;;;;;;;;;21.70;99.90;;;;;;5008004;28;19913;-84
2023/07/11 03:38:01;;;;;;;;;;;21.70;99.90;;;;;;5029188;28;19917;-85
2023/07/11 03:40:26;;;;;;;;;;;21.70;99.90;;;;;;5025970;28;19912;-84
2023/07/11 03:42:52;;;;;;;;;;;21.70;99.90;;;;;;5030450;28;19921;-82
2023/07/11 03:45:20;;;;;;;;;;;21.60;99.90;;;;;;5031573;28;19917;-82
2023/07/11 03:47:45;;;;;;;;;;;21.60;99.90;;;;;;5008605;28;19919;-85
2023/07/11 03:50:11;;;;;;;;;;;21.60;99.90;;;;;;5023745;28;19925;-81
2023/07/11 03:52:36;;;;;;;;;;;21.60;99.90;;;;;;5023110;28;19953;-85
2023/07/11 03:55:02;;;;;;;;;;;21.50;99.90;;;;;;5006040;28;20009;-86
2023/07/11 03:57:28;;;;;;;;;;;21.50;99.90;;;;;;5005980;28;19920;-86
2023/07/11 03:59:53;;;;;;;;;;;21.40;99.90;;;;;;5026232;28;19917;-83
2023/07/11 04:02:19;;;;;;;;;;;21.40;99.90;;;;;;5022444;28;19925;-84
2023/07/11 04:04:45;;;;;;;;;;;21.40;99.90;;;;;;5022316;28;20308;-85
2023/07/11 04:07:10;;;;;;;;;;;21.40;99.90;;;;;;5023645;28;19909;-83
2023/07/11 04:09:38;;;;;;;;;;;21.40;99.90;;;;;;5037462;28;19913;-83
2023/07/11 04:12:04;;;;;;;;;;;21.30;99.90;;;;;;5023431;28;19913;-85
2023/07/11 04:14:30;;;;;;;;;;;21.30;99.90;;;;;;5025913;28;20360;-86
2023/07/11 04:16:55;;;;;;;;;;;21.30;99.90;;;;;;5032165;28;19920;-84
2023/07/11 04:19:21;;;;;;;;;;;21.30;99.90;;;;;;5029383;28;19914;-83
2023/07/11 04:21:46;;;;;;;;;;;21.20;99.90;;;;;;5031448;28;19965;-83
2023/07/11 04:24:12;;;;;;;;;;;21.30;99.90;;;;;;5006239;28;20096;-85
2023/07/11 04:26:37;;;;;;;;;;;21.20;99.90;;;;;;5031908;28;19912;-85
2023/07/11 04:29:03;;;;;;;;;;;21.20;99.90;;;;;;5023355;28;19944;-85
2023/07/11 04:31:28;;;;;;;;;;;21.30;99.90;;;;;;5030607;28;20000;-83
2023/07/11 04:33:54;;;;;;;;;;;21.40;99.90;;;;;;5023915;28;19913;-85
2023/07/11 04:36:19;;;;;;;;;;;21.60;99.90;;;;;;5013840;28;19991;-84
2023/07/11 04:38:45;;;;;;;;;;;21.60;99.90;;;;;;5028703;28;19987;-84
2023/07/11 04:41:11;;;;;;;;;;;21.70;99.90;;;;;;5028200;28;20005;-85
2023/07/11 04:43:36;;;;;;;;;;;21.80;99.90;;;;;;5004742;28;20582;-83
2023/07/11 04:46:03;;;;;;;;;;;21.90;99.90;;;;;;5025366;28;20299;-83
2023/07/11 04:48:29;;;;;;;;;;;22.10;99.90;;;;;;5009430;28;19952;-82
2023/07/11 04:50:57;;;;;;;;;;;22.20;99.90;;;;;;5023386;28;20387;-83
2023/07/11 04:53:23;;;;;;;;;;;22.30;99.90;;;;;;5019802;28;19917;-80
2023/07/11 04:55:59;;;;;;;;;;;22.40;99.90;;;;;;5021835;28;20482;-80
2023/07/11 04:58:25;;;;;;;;;;;22.40;99.90;;;;;;5021953;28;19917;-80
2023/07/11 05:00:50;;;;;;;;;;;22.60;99.90;;;;;;5021521;28;19921;-78
2023/07/11 05:03:16;;;;;;;;;;;22.80;99.60;;;;;;5020852;28;20503;-79
2023/07/11 05:05:42;;;;;;;;;;;23.00;98.50;;;;;;5021884;28;20467;-84
2023/07/11 05:08:07;;;;;;;;;;;23.50;97.50;;;;;;5004711;28;19932;-84
2023/07/11 05:10:33;;;;;;;;;;;24.00;95.90;;;;;;5005155;28;20004;-84
2023/07/11 05:12:58;;;;;;;;;;;24.40;94.30;;;;;;5008093;28;20031;-85
2023/07/11 05:15:24;;;;;;;;;;;25.00;92.50;;;;;;5028371;28;19917;-85
2023/07/11 05:17:49;;;;;;;;;;;25.10;91.80;;;;;;5008107;28;19917;-83
2023/07/11 05:20:15;;;;;;;;;;;25.30;91.40;;;;;;5023738;28;20670;-83
2023/07/11 05:22:40;;;;;;;;;;;25.20;90.90;;;;;;5015667;28;20619;-81
2023/07/11 05:25:06;;;;;;;;;;;25.50;90.60;;;;;;5035417;28;20003;-83
2023/07/11 05:27:32;;;;;;;;;;;25.90;90.10;;;;;;5030931;28;20589;-83
2023/07/11 05:29:57;;;;;;;;;;;25.90;88.80;;;;;;5023800;28;19930;-84
2023/07/11 05:32:23;;;;;;;;;;;26.10;87.80;;;;;;5040054;28;19920;-83
2023/07/11 05:34:48;;;;;;;;;;;26.40;86.50;;;;;;5004130;28;19917;-82
2023/07/11 05:37:14;;;;;;;;;;;26.50;87.10;;;;;;5022718;28;19920;-83
2023/07/11 05:39:40;;;;;;;;;;;26.70;84.90;;;;;;5022480;28;19913;-83
2023/07/11 05:42:05;;;;;;;;;;;26.80;84.20;;;;;;5031179;28;19988;-81
2023/07/11 05:44:31;;;;;;;;;;;27.10;82.90;;;;;;5021214;28;19974;-83
2023/07/11 05:46:56;;;;;;;;;;;27.30;82.20;;;;;;5015764;28;19952;-83
2023/07/11 05:49:22;;;;;;;;;;;27.70;80.60;;;;;;5027062;28;19925;-83
2023/07/11 05:51:48;;;;;;;;;;;27.80;81.10;;;;;;5009776;28;19913;-83
2023/07/11 05:54:14;;;;;;;;;;;28.50;78.30;;;;;;5025229;28;20020;-80
2023/07/11 05:56:40;;;;;;;;;;;28.50;76.00;;;;;;5011278;28;19913;-78
2023/07/11 05:59:06;;;;;;;;;;;28.60;77.20;;;;;;5004258;28;19967;-79
2023/07/11 06:01:31;;;;;;;;;;;28.90;75.70;;;;;;5006021;28;19917;-77
2023/07/11 06:04:03;;;;;;;;;;;29.00;74.60;;;;;;5024496;28;20402;-80
2023/07/11 06:06:28;;;;;;;;;;;29.00;75.00;;;;;;5020139;28;19923;-80
2023/07/11 06:08:55;;;;;;;;;;;29.20;74.00;;;;;;5003746;28;19913;-80
2023/07/11 06:11:20;;;;;;;;;;;29.60;73.00;;;;;;5005195;28;20390;-79
2023/07/11 06:13:46;;;;;;;;;;;29.80;72.10;;;;;;5004383;28;20463;-79
2023/07/11 06:16:16;;;;;;;;;;;29.90;71.10;;;;;;5001568;28;19921;-80
2023/07/11 06:18:42;;;;;;;;;;;29.80;70.90;;;;;;5006785;28;19963;-79
2023/07/11 06:21:08;;;;;;;;;;;30.70;71.20;;;;;;5002770;28;20008;-79
2023/07/11 06:23:34;;;;;;;;;;;30.60;68.00;;;;;;5003704;28;19929;-80
2023/07/11 06:25:59;;;;;;;;;;;30.90;67.40;;;;;;5003649;28;20340;-78
2023/07/11 06:28:25;;;;;;;;;;;31.30;66.70;;;;;;5015452;28;19921;-77
2023/07/11 06:30:54;;;;;;;;;;;31.10;66.10;;;;;;5018975;28;19925;-79
2023/07/11 06:33:19;;;;;;;;;;;30.80;67.70;;;;;;5021550;28;19944;-79
2023/07/11 06:35:51;;;;;;;;;;;31.80;65.20;;;;;;5020642;28;20477;-78
2023/07/11 06:38:17;;;;;;;;;;;32.20;63.20;;;;;;5013666;28;19940;-80
2023/07/11 06:40:49;;;;;;;;;;;31.80;64.20;;;;;;5004322;28;19992;-79
2023/07/11 06:43:16;;;;;;;;;;;31.80;65.10;;;;;;5003716;28;20503;-78
2023/07/11 06:45:41;;;;;;;;;;;31.80;63.60;;;;;;5003049;28;19917;-78
2023/07/11 06:48:07;;;;;;;;;;;32.20;63.70;;;;;;5004155;28;19972;-77
2023/07/11 06:50:33;;;;;;;;;;;32.70;63.70;;;;;;5021009;28;19932;-77
2023/07/11 06:52:59;;;;;;;;;;;32.30;64.20;;;;;;5001130;28;19917;-77
2023/07/11 06:55:25;;;;;;;;;;;32.90;62.40;;;;;;5018362;28;19917;-77
2023/07/11 06:57:51;;;;;;;;;;;33.40;61.00;;;;;;5003965;28;20582;-76
2023/07/11 07:00:17;;;;;;;;;;;33.50;60.60;;;;;;5018859;28;19917;-76
2023/07/11 07:02:42;;;;;;;;;;;33.60;61.00;;;;;;5021429;28;20403;-76
2023/07/11 07:05:08;;;;;;;;;;;33.90;59.80;;;;;;5017350;28;20712;-77
2023/07/11 07:07:34;;;;;;;;;;;34.30;58.40;;;;;;5021766;28;20034;-79
2023/07/11 07:10:00;;;;;;;;;;;34.20;58.10;;;;;;5018333;28;20458;-76
2023/07/11 07:12:25;;;;;;;;;;;35.20;57.10;;;;;;5016603;28;19955;-76
2023/07/11 07:14:51;;;;;;;;;;;35.10;57.60;;;;;;5021302;28;19922;-78
2023/07/11 07:17:16;;;;;;;;;;;34.50;56.60;;;;;;5020229;28;19917;-77
2023/07/11 07:19:43;;;;;;;;;;;34.80;57.20;;;;;;5019002;28;19917;-78
2023/07/11 07:22:09;;;;;;;;;;;35.90;54.70;;;;;;4998687;28;20606;-78
2023/07/11 07:24:34;;;;;;;;;;;36.10;54.90;;;;;;5005731;28;19917;-78
2023/07/11 07:27:00;;;;;;;;;;;35.60;56.10;;;;;;5017043;28;19924;-77
2023/07/11 07:29:25;;;;;;;;;;;35.60;56.10;;;;;;5013367;28;20014;-77
2023/07/11 07:31:51;;;;;;;;;;;35.50;55.30;;;;;;5022032;28;19917;-79
2023/07/11 07:34:16;;;;;;;;;;;35.30;55.30;;;;;;5022951;28;20098;-78
2023/07/11 07:36:42;;;;;;;;;;;36.00;55.00;;;;;;5022657;28;20287;-78
2023/07/11 07:39:09;;;;;;;;;;;36.20;54.10;;;;;;4994775;28;20500;-78
2023/07/11 07:41:35;;;;;;;;;;;35.80;54.10;;;;;;5021170;28;19913;-77
2023/07/11 07:44:00;;;;;;;;;;;36.60;53.10;;;;;;5018476;28;20727;-77
2023/07/11 07:46:26;;;;;;;;;;;36.30;53.70;;;;;;5024342;28;19983;-76
2023/07/11 07:48:52;;;;;;;;;;;37.00;53.50;;;;;;5000814;28;19914;-77
2023/07/11 07:51:18;;;;;;;;;;;37.40;51.30;;;;;;5002628;28;19967;-77
2023/07/11 07:53:44;;;;;;;;;;;38.70;50.80;;;;;;5017164;28;19917;-78
2023/07/11 07:56:09;;;;;;;;;;;39.30;48.80;;;;;;5000733;28;19920;-78
2023/07/11 07:58:35;;;;;;;;;;;39.20;48.40;;;;;;5018371;28;19920;-78
2023/07/11 08:01:01;;;;;;;;;;;39.20;47.30;;;;;;5006346;28;19913;-77
2023/07/11 08:03:27;;;;;;;;;;;39.80;47.80;;;;;;5001001;28;20000;-78
2023/07/11 08:05:53;;;;;;;;;;;40.10;47.40;;;;;;5006987;28;19913;-77
2023/07/11 08:08:19;;;;;;;;;;;39.80;47.30;;;;;;5007046;28;19987;-79
2023/07/11 08:10:44;;;;;;;;;;;40.30;46.90;;;;;;5010031;28;20392;-78
2023/07/11 08:13:10;;;;;;;;;;;40.00;46.30;;;;;;5021654;28;19964;-79
2023/07/11 08:15:35;;;;;;;;;;;40.70;46.70;;;;;;5021824;28;20000;-77
2023/07/11 08:18:01;;;;;;;;;;;40.20;46.80;;;;;;5022285;28;19959;-78
2023/07/11 08:20:26;;;;;;;;;;;41.10;47.00;;;;;;5004022;28;20300;-80
2023/07/11 08:22:54;;;;;;;;;;;41.60;44.20;;;;;;5021974;28;20373;-79
2023/07/11 08:25:20;;;;;;;;;;;41.80;44.70;;;;;;5021703;28;20008;-78
2023/07/11 08:27:46;;;;;;;;;;;42.60;44.90;;;;;;5003766;28;20432;-78
2023/07/11 08:30:11;;;;;;;;;;;42.20;43.80;;;;;;4999303;28;19918;-77
2023/07/11 08:32:38;;;;;;;;;;;43.00;45.10;;;;;;5017691;28;20450;-78
2023/07/11 08:35:05;;;;;;;;;;;43.50;46.20;;;;;;5022344;28;20366;-79
2023/07/11 08:37:30;;;;;;;;;;;43.50;45.00;;;;;;5022152;28;20330;-78
2023/07/11 08:39:56;;;;;;;;;;;43.50;45.00;;;;;;5023507;28;20428;-78
2023/07/11 08:42:28;;;;;;;;;;;43.20;44.10;;;;;;5005514;28;19962;-78
2023/07/11 08:45:12;;;;;;;;;;;43.80;44.60;;;;;;5021461;28;19917;-78
2023/07/11 08:47:39;;;;;;;;;;;43.80;44.90;;;;;;5022841;28;20403;-79
2023/07/11 08:50:05;;;;;;;;;;;43.90;43.90;;;;;;5020532;28;19932;-77
2023/07/11 08:52:31;;;;;;;;;;;43.20;43.00;;;;;;5022654;28;19917;-78
2023/07/11 08:55:03;;;;;;;;;;;43.20;43.90;;;;;;5022571;28;20363;-77
2023/07/11 08:57:31;;;;;;;;;;;44.80;42.40;;;;;;5020089;28;19924;-78
2023/07/11 08:59:57;;;;;;;;;;;44.70;40.00;;;;;;5020761;28;19917;-78
2023/07/11 09:02:28;;;;;;;;;;;44.70;42.40;;;;;;5023774;28;20346;-78
2023/07/11 09:04:54;;;;;;;;;;;45.20;42.10;;;;;;5017627;28;19993;-80
2023/07/11 09:07:19;;;;;;;;;;;44.50;41.10;;;;;;5026660;28;19929;-79
2023/07/11 09:09:45;;;;;;;;;;;45.00;40.70;;;;;;5022883;28;19916;-78
2023/07/11 09:12:19;;;;;;;;;;;44.00;40.30;;;;;;5001420;28;19921;-78
2023/07/11 09:14:54;;;;;;;;;;;44.70;40.90;;;;;;5022465;28;20254;-78
2023/07/11 09:17:35;;;;;;;;;;;45.40;41.10;;;;;;5019585;28;19917;-80
2023/07/11 09:20:10;;;;;;;;;;;45.10;39.70;;;;;;5016129;28;19952;-78
2023/07/11 09:22:47;;;;;;;;;;;44.60;41.20;;;;;;5019871;28;19922;-78
2023/07/11 09:25:16;;;;;;;;;;;45.10;40.40;;;;;;5018223;28;19913;-78
2023/07/11 09:27:44;;;;;;;;;;;44.40;40.70;;;;;;5021393;28;19952;-79
2023/07/11 09:30:17;;;;;;;;;;;43.90;41.00;;;;;;5021987;28;19924;-79
2023/07/11 09:32:42;;;;;;;;;;;45.70;39.60;;;;;;5019177;28;19944;-79
2023/07/11 09:35:28;;;;;;;;;;;46.00;38.30;;;;;;5004370;28;20648;-78
2023/07/11 09:37:57;;;;;;;;;;;46.30;38.40;;;;;;5021227;28;19913;-80
2023/07/11 09:40:33;;;;;;;;;;;46.20;40.10;;;;;;5018404;28;19917;-78
2023/07/11 09:42:59;;;;;;;;;;;46.00;38.50;;;;;;5004298;28;19929;-80
2023/07/11 09:45:30;;;;;;;;;;;46.00;38.30;;;;;;5022436;28;19921;-79
2023/07/11 09:48:03;;;;;;;;;;;46.00;39.10;;;;;;5022005;28;19956;-78
2023/07/11 09:50:37;;;;;;;;;;;45.80;38.40;;;;;;5011198;28;19926;-77
2023/07/11 09:53:08;;;;;;;;;;;45.90;38.80;;;;;;5017013;28;20860;-78
2023/07/11 09:55:36;;;;;;;;;;;46.00;38.70;;;;;;5020136;28;19920;-78
2023/07/11 09:58:02;;;;;;;;;;;44.20;37.60;;;;;;5020696;28;20016;-80
2023/07/11 10:00:28;;;;;;;;;;;45.10;36.10;;;;;;5021215;28;19967;-78
2023/07/11 10:02:56;;;;;;;;;;;43.00;37.20;;;;;;5022192;28;19925;-79
2023/07/11 10:05:23;;;;;;;;;;;43.90;39.10;;;;;;5004447;28;19937;-77
2023/07/11 10:07:58;;;;;;;;;;;44.30;37.90;;;;;;5022262;28;19913;-78
2023/07/11 10:10:24;;;;;;;;;;;45.30;36.80;;;;;;5003783;28;20020;-79
2023/07/11 10:12:50;;;;;;;;;;;45.60;36.70;;;;;;5021017;28;19926;-78
2023/07/11 10:15:18;;;;;;;;;;;45.70;36.20;;;;;;5016465;28;19957;-78
2023/07/11 10:17:44;;;;;;;;;;;46.20;37.00;;;;;;5022061;28;20769;-79
2023/07/11 10:20:17;;;;;;;;;;;46.40;37.70;;;;;;5020054;28;19913;-78
2023/07/11 10:22:44;;;;;;;;;;;46.60;35.80;;;;;;5021780;28;19917;-78
2023/07/11 10:25:26;;;;;;;;;;;44.90;34.60;;;;;;5004109;28;20411;-79
2023/07/11 10:27:52;;;;;;;;;;;44.90;39.20;;;;;;5021387;28;19952;-77
2023/07/11 10:30:19;;;;;;;;;;;45.30;36.20;;;;;;5019725;28;20424;-77
2023/07/11 10:32:56;;;;;;;;;;;45.50;35.80;;;;;;5004005;28;19932;-78
2023/07/11 10:35:23;;;;;;;;;;;45.70;33.60;;;;;;5022304;28;19920;-77
2023/07/11 10:38:00;;;;;;;;;;;45.00;34.20;;;;;;5003857;28;20466;-77
2023/07/11 10:40:30;;;;;;;;;;;45.60;35.20;;;;;;5003818;28;20308;-77
2023/07/11 10:43:03;;;;;;;;;;;45.60;34.30;;;;;;5021023;28;20666;-77
2023/07/11 10:45:35;;;;;;;;;;;45.00;35.00;;;;;;5021454;28;19924;-78
2023/07/11 10:48:01;;;;;;;;;;;44.00;35.90;;;;;;5021831;28;19917;-78
2023/07/11 10:50:33;;;;;;;;;;;42.70;35.00;;;;;;5022498;28;19932;-79
2023/07/11 10:53:01;;;;;;;;;;;40.80;37.20;;;;;;5024220;28;19936;-78
2023/07/11 10:55:30;;;;;;;;;;;39.30;41.50;;;;;;5007137;28;19916;-78
2023/07/11 10:57:57;;;;;;;;;;;38.90;42.90;;;;;;5007072;28;19919;-77
2023/07/11 11:00:29;;;;;;;;;;;38.80;41.70;;;;;;5024520;28;19952;-77
2023/07/11 11:02:54;;;;;;;;;;;38.50;44.30;;;;;;5016461;28;19924;-78
2023/07/11 11:05:24;;;;;;;;;;;38.60;46.00;;;;;;5024003;28;19913;-77
2023/07/11 11:07:55;;;;;;;;;;;38.80;42.90;;;;;;5024701;28;19913;-78
2023/07/11 11:10:39;;;;;;;;;;;38.50;41.70;;;;;;5023326;28;19913;-78
2023/07/11 11:13:21;;;;;;;;;;;38.30;43.70;;;;;;5007020;28;20622;-77
2023/07/11 11:15:52;;;;;;;;;;;38.00;44.60;;;;;;5024916;28;20787;-78
2023/07/11 11:18:21;;;;;;;;;;;37.80;44.80;;;;;;5024334;28;19948;-78
2023/07/11 11:21:01;;;;;;;;;;;37.70;46.40;;;;;;5023111;28;19913;-79
2023/07/11 11:23:26;;;;;;;;;;;37.60;47.30;;;;;;5020290;28;19921;-78
2023/07/11 11:26:01;;;;;;;;;;;37.00;49.90;;;;;;5024791;28;19913;-77
2023/07/11 11:28:31;;;;;;;;;;;37.20;48.80;;;;;;5024909;28;19919;-78
2023/07/11 11:31:00;;;;;;;;;;;37.20;48.60;;;;;;5006388;28;19956;-79
2023/07/11 11:33:36;;;;;;;;;;;36.60;45.90;;;;;;5022638;28;19956;-78
2023/07/11 11:36:11;;;;;;;;;;;36.30;46.60;;;;;;5006329;28;19920;-78
2023/07/11 11:38:40;;;;;;;;;;;36.00;45.80;;;;;;5021341;28;19913;-77
2023/07/11 11:41:11;;;;;;;;;;;35.00;48.10;;;;;;5024214;28;19913;-79
2023/07/11 11:43:38;;;;;;;;;;;35.70;48.60;;;;;;5004315;28;19925;-77
2023/07/11 11:46:05;;;;;;;;;;;36.20;49.70;;;;;;5024217;28;19917;-79
2023/07/11 11:48:31;;;;;;;;;;;36.40;45.40;;;;;;5024358;28;20402;-77
2023/07/11 11:50:58;;;;;;;;;;;35.70;47.20;;;;;;5005963;28;19936;-78
2023/07/11 11:53:34;;;;;;;;;;;35.90;48.50;;;;;;5024050;28;20017;-77
2023/07/11 11:56:01;;;;;;;;;;;35.80;49.10;;;;;;5024069;28;19917;-77
2023/07/11 11:58:29;;;;;;;;;;;35.40;48.00;;;;;;5024542;28;19935;-76
2023/07/11 12:00:55;;;;;;;;;;;35.40;46.90;;;;;;5023529;28;20028;-77
2023/07/11 12:03:21;;;;;;;;;;;35.00;46.40;;;;;;5005343;28;19917;-77
2023/07/11 12:05:47;;;;;;;;;;;35.10;51.00;;;;;;5022291;28;19913;-77
2023/07/11 12:08:30;;;;;;;;;;;34.70;48.40;;;;;;5023255;28;19913;-77
2023/07/11 12:11:08;;;;;;;;;;;34.90;48.30;;;;;;5006150;28;19913;-78
2023/07/11 12:13:43;;;;;;;;;;;35.00;48.10;;;;;;5019692;28;20126;-77
2023/07/11 12:16:24;;;;;;;;;;;35.20;48.50;;;;;;4999339;28;19920;-78
2023/07/11 12:18:51;;;;;;;;;;;35.10;48.70;;;;;;5022347;28;19913;-78
2023/07/11 12:21:31;;;;;;;;;;;34.70;51.90;;;;;;5023157;28;19928;-77
2023/07/11 12:24:16;;;;;;;;;;;34.80;55.10;;;;;;5031370;28;19921;-78
2023/07/11 12:26:41;;;;;;;;;;;35.30;54.40;;;;;;5022628;28;19920;-77
2023/07/11 12:29:26;;;;;;;;;;;35.50;50.90;;;;;;5020084;28;19918;-77
2023/07/11 12:32:11;;;;;;;;;;;35.10;49.00;;;;;;5024666;28;19935;-77
2023/07/11 12:34:41;;;;;;;;;;;35.60;49.00;;;;;;5025154;28;19996;-77
2023/07/11 12:37:08;;;;;;;;;;;35.70;48.80;;;;;;5023490;28;19996;-78
2023/07/11 12:39:40;;;;;;;;;;;35.20;50.90;;;;;;5023969;28;20327;-77
2023/07/11 12:42:17;;;;;;;;;;;35.30;54.70;;;;;;5024071;28;19917;-77
2023/07/11 12:44:44;;;;;;;;;;;36.00;49.80;;;;;;5021648;28;19917;-78
2023/07/11 12:47:13;;;;;;;;;;;36.10;52.70;;;;;;5020588;28;19928;-77
2023/07/11 12:49:43;;;;;;;;;;;36.30;53.90;;;;;;5005709;28;19971;-78
2023/07/11 12:52:12;;;;;;;;;;;36.60;50.00;;;;;;5030590;28;20429;-77
2023/07/11 12:54:38;;;;;;;;;;;37.10;51.30;;;;;;5027656;28;19924;-77
2023/07/11 12:57:07;;;;;;;;;;;36.90;49.10;;;;;;5010786;28;19913;-79
2023/07/11 12:59:33;;;;;;;;;;;36.90;49.70;;;;;;5023167;28;19920;-77
2023/07/11 13:02:00;;;;;;;;;;;37.00;49.30;;;;;;5027256;28;19944;-77
2023/07/11 13:04:32;;;;;;;;;;;36.70;49.10;;;;;;5027458;28;19959;-79
2023/07/11 13:06:57;;;;;;;;;;;36.40;52.70;;;;;;5025722;28;19920;-77
2023/07/11 13:09:23;;;;;;;;;;;36.10;49.50;;;;;;5026999;28;19913;-77
2023/07/11 13:11:49;;;;;;;;;;;35.50;50.30;;;;;;5029371;28;20011;-79
2023/07/11 13:14:15;;;;;;;;;;;35.50;50.90;;;;;;5022351;28;20763;-77
2023/07/11 13:16:42;;;;;;;;;;;35.80;54.10;;;;;;5024006;28;19920;-77
2023/07/11 13:19:14;;;;;;;;;;;36.20;55.90;;;;;;5022849;28;19913;-77
2023/07/11 13:21:42;;;;;;;;;;;35.80;53.30;;;;;;5003903;28;20430;-77
2023/07/11 13:24:10;;;;;;;;;;;35.40;54.70;;;;;;5021975;28;20455;-79
2023/07/11 13:26:36;;;;;;;;;;;35.80;53.70;;;;;;5022435;28;19967;-78
2023/07/11 13:29:21;;;;;;;;;;;36.00;56.20;;;;;;5003540;28;19921;-79
2023/07/11 13:31:59;;;;;;;;;;;36.10;54.10;;;;;;5002970;28;19947;-77
2023/07/11 13:34:28;;;;;;;;;;;35.70;54.70;;;;;;5021650;28;19917;-77
2023/07/11 13:36:55;;;;;;;;;;;35.50;55.90;;;;;;5020978;28;19913;-77
2023/07/11 13:39:24;;;;;;;;;;;35.50;59.10;;;;;;5003006;28;19917;-77
2023/07/11 13:41:51;;;;;;;;;;;34.90;57.50;;;;;;5020570;28;19956;-78
2023/07/11 13:44:36;;;;;;;;;;;34.80;57.00;;;;;;5020113;28;20036;-77
2023/07/11 13:47:11;;;;;;;;;;;35.00;56.50;;;;;;5020059;28;19917;-77
2023/07/11 13:49:39;;;;;;;;;;;34.80;57.70;;;;;;5004104;28;19987;-79
2023/07/11 13:52:05;;;;;;;;;;;34.60;60.30;;;;;;5021128;28;19963;-77
2023/07/11 13:54:33;;;;;;;;;;;34.80;61.20;;;;;;5004515;28;19916;-77
2023/07/11 13:56:58;;;;;;;;;;;34.50;59.40;;;;;;5004240;28;20484;-78
2023/07/11 13:59:24;;;;;;;;;;;34.10;60.00;;;;;;5021704;28;19967;-79
2023/07/11 14:01:49;;;;;;;;;;;34.10;61.00;;;;;;5004691;28;19917;-79
2023/07/11 14:04:16;;;;;;;;;;;34.50;60.10;;;;;;5022282;28;19960;-76
2023/07/11 14:06:42;;;;;;;;;;;34.40;62.60;;;;;;5004774;28;20777;-79
2023/07/11 14:09:12;;;;;;;;;;;34.40;62.40;;;;;;5020587;28;19965;-77
2023/07/11 14:11:38;;;;;;;;;;;34.00;62.80;;;;;;5012382;28;19913;-77
2023/07/11 14:14:10;;;;;;;;;;;33.70;62.90;;;;;;5014702;28;19920;-76
2023/07/11 14:16:35;;;;;;;;;;;33.60;66.30;;;;;;5018758;28;19917;-76
2023/07/11 14:19:03;;;;;;;;;;;33.50;62.90;;;;;;5015209;28;19921;-77